sensor_id;sensor_type;location;lat;lon;timestamp;pressure;altitude;pressure_sealevel;temperature
18219;BMP180;9234;49.344;11.120;2023-07-31T00:00:06;97514.00;;;16.70
18219;BMP180;9234;49.344;11.120;2023-07-31T00:02:38;97514.00;;;16.70
18219;BMP180;9234;49.344;11.120;2023-07-31T00:05:09;97497.00;;;16.60
18219;BMP180;9234;49.344;11.120;2023-07-31T00:07:37;97503.00;;;16.60
18219;BMP180;9234;49.344;11.120;2023-07-31T00:10:07;97491.00;;;16.60
18219;BMP180;9234;49.344;11.120;2023-07-31T00:12:35;97488.00;;;16.50
18219;BMP180;9234;49.344;11.120;2023-07-31T00:15:05;97487.00;;;16.50
18219;BMP180;9234;49.344;11.120;2023-07-31T00:17:34;97500.00;;;16.50
18219;BMP180;9234;49.344;11.120;2023-07-31T00:20:05;97495.00;;;16.50
18219;BMP180;9234;49.344;11.120;2023-07-31T00:22:34;97495.00;;;16.50
18219;BMP180;9234;49.344;11.120;2023-07-31T00:25:04;97491.00;;;16.50
18219;BMP180;9234;49.344;11.120;2023-07-31T00:27:33;97486.00;;;16.50
18219;BMP180;9234;49.344;11.120;2023-07-31T00:30:03;97481.00;;;16.60
18219;BMP180;9234;49.344;11.120;2023-07-31T00:32:32;97479.00;;;16.60
18219;BMP180;9234;49.344;11.120;2023-07-31T00:35:01;97483.00;;;16.60
18219;BMP180;9234;49.344;11.120;2023-07-31T00:37:32;97478.00;;;16.60
18219;BMP180;9234;49.344;11.120;2023-07-31T00:40:01;97461.00;;;16.60
18219;BMP180;9234;49.344;11.120;2023-07-31T00:42:31;97481.00;;;16.60
18219;BMP180;9234;49.344;11.120;2023-07-31T00:45:01;97484.00;;;16.50
18219;BMP180;9234;49.344;11.120;2023-07-31T00:47:30;97495.00;;;16.50
18219;BMP180;9234;49.344;11.120;2023-07-31T00:49:59;97474.00;;;16.50
18219;BMP180;9234;49.344;11.120;2023-07-31T00:52:27;97486.00;;;16.50
18219;BMP180;9234;49.344;11.120;2023-07-31T00:54:57;97478.00;;;16.40
18219;BMP180;9234;49.344;11.120;2023-07-31T00:57:26;97476.00;;;16.40
18219;BMP180;9234;49.344;11.120;2023-07-31T00:59:54;97487.00;;;16.30
18219;BMP180;9234;49.344;11.120;2023-07-31T01:02:22;97490.00;;;16.30
18219;BMP180;9234;49.344;11.120;2023-07-31T01:04:52;97474.00;;;16.30
18219;BMP180;9234;49.344;11.120;2023-07-31T01:07:35;97481.00;;;16.30
18219;BMP180;9234;49.344;11.120;2023-07-31T01:10:18;97480.00;;;16.20
18219;BMP180;9234;49.344;11.120;2023-07-31T01:12:50;97478.00;;;16.20
18219;BMP180;9234;49.344;11.120;2023-07-31T01:15:20;97470.00;;;16.20
18219;BMP180;9234;49.344;11.120;2023-07-31T01:17:49;97461.00;;;16.20
18219;BMP180;9234;49.344;11.120;2023-07-31T01:20:22;97479.00;;;16.20
18219;BMP180;9234;49.344;11.120;2023-07-31T01:26:12;97465.00;;;16.30
18219;BMP180;9234;49.344;11.120;2023-07-31T01:28:55;97465.00;;;16.30
18219;BMP180;9234;49.344;11.120;2023-07-31T01:31:26;97469.00;;;16.30
18219;BMP180;9234;49.344;11.120;2023-07-31T01:34:00;97462.00;;;16.30
18219;BMP180;9234;49.344;11.120;2023-07-31T01:36:31;97460.00;;;16.30
18219;BMP180;9234;49.344;11.120;2023-07-31T01:39:00;97472.00;;;16.30
18219;BMP180;9234;49.344;11.120;2023-07-31T01:41:31;97464.00;;;16.40
18219;BMP180;9234;49.344;11.120;2023-07-31T01:44:00;97451.00;;;16.40
18219;BMP180;9234;49.344;11.120;2023-07-31T01:46:28;97468.00;;;16.40
18219;BMP180;9234;49.344;11.120;2023-07-31T01:48:57;97459.00;;;16.40
18219;BMP180;9234;49.344;11.120;2023-07-31T01:51:25;97452.00;;;16.50
18219;BMP180;9234;49.344;11.120;2023-07-31T01:53:53;97455.00;;;16.50
18219;BMP180;9234;49.344;11.120;2023-07-31T01:56:22;97456.00;;;16.50
18219;BMP180;9234;49.344;11.120;2023-07-31T01:58:52;97466.00;;;16.50
18219;BMP180;9234;49.344;11.120;2023-07-31T02:01:20;97452.00;;;16.50
18219;BMP180;9234;49.344;11.120;2023-07-31T02:03:51;97442.00;;;16.50
18219;BMP180;9234;49.344;11.120;2023-07-31T02:06:21;97453.00;;;16.60
18219;BMP180;9234;49.344;11.120;2023-07-31T02:08:49;97438.00;;;16.60
18219;BMP180;9234;49.344;11.120;2023-07-31T02:11:18;97450.00;;;16.60
18219;BMP180;9234;49.344;11.120;2023-07-31T02:13:50;97438.00;;;16.60
18219;BMP180;9234;49.344;11.120;2023-07-31T02:16:19;97440.00;;;16.60
18219;BMP180;9234;49.344;11.120;2023-07-31T02:18:47;97430.00;;;16.60
18219;BMP180;9234;49.344;11.120;2023-07-31T02:21:16;97433.00;;;16.60
18219;BMP180;9234;49.344;11.120;2023-07-31T02:23:47;97407.00;;;16.60
18219;BMP180;9234;49.344;11.120;2023-07-31T02:26:16;97425.00;;;16.70
18219;BMP180;9234;49.344;11.120;2023-07-31T02:28:44;97409.00;;;16.60
18219;BMP180;9234;49.344;11.120;2023-07-31T02:31:13;97408.00;;;16.70
18219;BMP180;9234;49.344;11.120;2023-07-31T02:33:42;97417.00;;;16.70
18219;BMP180;9234;49.344;11.120;2023-07-31T02:36:10;97420.00;;;16.70
18219;BMP180;9234;49.344;11.120;2023-07-31T02:38:39;97414.00;;;16.70
18219;BMP180;9234;49.344;11.120;2023-07-31T02:41:07;97415.00;;;16.70
18219;BMP180;9234;49.344;11.120;2023-07-31T02:43:36;97409.00;;;16.70
18219;BMP180;9234;49.344;11.120;2023-07-31T02:46:04;97425.00;;;16.70
18219;BMP180;9234;49.344;11.120;2023-07-31T02:48:34;97414.00;;;16.70
18219;BMP180;9234;49.344;11.120;2023-07-31T02:51:03;97421.00;;;16.70
18219;BMP180;9234;49.344;11.120;2023-07-31T02:53:31;97412.00;;;16.70
18219;BMP180;9234;49.344;11.120;2023-07-31T02:56:00;97419.00;;;16.70
18219;BMP180;9234;49.344;11.120;2023-07-31T02:58:28;97411.00;;;16.70
18219;BMP180;9234;49.344;11.120;2023-07-31T03:00:58;97424.00;;;16.70
18219;BMP180;9234;49.344;11.120;2023-07-31T03:03:27;97414.00;;;16.70
18219;BMP180;9234;49.344;11.120;2023-07-31T03:05:56;97415.00;;;16.70
18219;BMP180;9234;49.344;11.120;2023-07-31T03:08:26;97427.00;;;16.70
18219;BMP180;9234;49.344;11.120;2023-07-31T03:10:54;97425.00;;;16.70
18219;BMP180;9234;49.344;11.120;2023-07-31T03:13:24;97425.00;;;16.70
18219;BMP180;9234;49.344;11.120;2023-07-31T03:15:53;97414.00;;;16.60
18219;BMP180;9234;49.344;11.120;2023-07-31T03:18:21;97411.00;;;16.60
18219;BMP180;9234;49.344;11.120;2023-07-31T03:20:49;97412.00;;;16.60
18219;BMP180;9234;49.344;11.120;2023-07-31T03:23:19;97407.00;;;16.60
18219;BMP180;9234;49.344;11.120;2023-07-31T03:25:57;97413.00;;;16.60
18219;BMP180;9234;49.344;11.120;2023-07-31T03:28:29;97396.00;;;16.50
18219;BMP180;9234;49.344;11.120;2023-07-31T03:30:58;97399.00;;;16.50
18219;BMP180;9234;49.344;11.120;2023-07-31T03:33:27;97395.00;;;16.50
18219;BMP180;9234;49.344;11.120;2023-07-31T03:35:56;97398.00;;;16.50
18219;BMP180;9234;49.344;11.120;2023-07-31T03:38:26;97398.00;;;16.40
18219;BMP180;9234;49.344;11.120;2023-07-31T03:40:54;97400.00;;;16.40
18219;BMP180;9234;49.344;11.120;2023-07-31T03:43:22;97397.00;;;16.40
18219;BMP180;9234;49.344;11.120;2023-07-31T03:45:52;97401.00;;;16.40
18219;BMP180;9234;49.344;11.120;2023-07-31T03:48:20;97395.00;;;16.40
18219;BMP180;9234;49.344;11.120;2023-07-31T03:50:49;97392.00;;;16.40
18219;BMP180;9234;49.344;11.120;2023-07-31T03:53:17;97388.00;;;16.40
18219;BMP180;9234;49.344;11.120;2023-07-31T03:55:47;97397.00;;;16.40
18219;BMP180;9234;49.344;11.120;2023-07-31T03:58:15;97399.00;;;16.40
18219;BMP180;9234;49.344;11.120;2023-07-31T04:00:45;97385.00;;;16.40
18219;BMP180;9234;49.344;11.120;2023-07-31T04:03:14;97395.00;;;16.40
18219;BMP180;9234;49.344;11.120;2023-07-31T04:05:42;97398.00;;;16.40
18219;BMP180;9234;49.344;11.120;2023-07-31T04:08:10;97395.00;;;16.40
18219;BMP180;9234;49.344;11.120;2023-07-31T04:10:39;97407.00;;;16.40
18219;BMP180;9234;49.344;11.120;2023-07-31T04:13:09;97400.00;;;16.40
18219;BMP180;9234;49.344;11.120;2023-07-31T04:15:37;97405.00;;;16.40
18219;BMP180;9234;49.344;11.120;2023-07-31T04:18:06;97406.00;;;16.40
18219;BMP180;9234;49.344;11.120;2023-07-31T04:20:36;97396.00;;;16.50
18219;BMP180;9234;49.344;11.120;2023-07-31T04:23:06;97404.00;;;16.50
18219;BMP180;9234;49.344;11.120;2023-07-31T04:25:35;97393.00;;;16.50
18219;BMP180;9234;49.344;11.120;2023-07-31T04:28:03;97397.00;;;16.50
18219;BMP180;9234;49.344;11.120;2023-07-31T04:30:33;97401.00;;;16.50
18219;BMP180;9234;49.344;11.120;2023-07-31T04:33:01;97405.00;;;16.50
18219;BMP180;9234;49.344;11.120;2023-07-31T04:35:30;97405.00;;;16.50
18219;BMP180;9234;49.344;11.120;2023-07-31T04:37:58;97408.00;;;16.50
18219;BMP180;9234;49.344;11.120;2023-07-31T04:40:26;97398.00;;;16.60
18219;BMP180;9234;49.344;11.120;2023-07-31T04:42:55;97411.00;;;16.60
18219;BMP180;9234;49.344;11.120;2023-07-31T04:45:23;97413.00;;;16.60
18219;BMP180;9234;49.344;11.120;2023-07-31T04:47:53;97393.00;;;16.60
18219;BMP180;9234;49.344;11.120;2023-07-31T04:50:21;97399.00;;;16.60
18219;BMP180;9234;49.344;11.120;2023-07-31T04:52:50;97405.00;;;16.60
18219;BMP180;9234;49.344;11.120;2023-07-31T04:55:18;97407.00;;;16.70
18219;BMP180;9234;49.344;11.120;2023-07-31T04:57:46;97391.00;;;16.70
18219;BMP180;9234;49.344;11.120;2023-07-31T05:00:15;97382.00;;;16.80
18219;BMP180;9234;49.344;11.120;2023-07-31T05:02:44;97391.00;;;16.80
18219;BMP180;9234;49.344;11.120;2023-07-31T05:05:14;97372.00;;;16.90
18219;BMP180;9234;49.344;11.120;2023-07-31T05:07:42;97383.00;;;17.00
18219;BMP180;9234;49.344;11.120;2023-07-31T05:10:11;97385.00;;;17.10
18219;BMP180;9234;49.344;11.120;2023-07-31T05:12:40;97382.00;;;17.20
18219;BMP180;9234;49.344;11.120;2023-07-31T05:15:09;97381.00;;;17.20
18219;BMP180;9234;49.344;11.120;2023-07-31T05:17:38;97374.00;;;17.30
18219;BMP180;9234;49.344;11.120;2023-07-31T05:20:08;97379.00;;;17.40
18219;BMP180;9234;49.344;11.120;2023-07-31T05:22:38;97377.00;;;17.50
18219;BMP180;9234;49.344;11.120;2023-07-31T05:25:07;97374.00;;;17.60
18219;BMP180;9234;49.344;11.120;2023-07-31T05:27:36;97383.00;;;17.70
18219;BMP180;9234;49.344;11.120;2023-07-31T05:30:06;97375.00;;;17.80
18219;BMP180;9234;49.344;11.120;2023-07-31T05:32:35;97385.00;;;17.80
18219;BMP180;9234;49.344;11.120;2023-07-31T05:35:05;97380.00;;;17.90
18219;BMP180;9234;49.344;11.120;2023-07-31T05:37:34;97378.00;;;18.00
18219;BMP180;9234;49.344;11.120;2023-07-31T05:40:08;97388.00;;;18.10
18219;BMP180;9234;49.344;11.120;2023-07-31T05:42:37;97380.00;;;18.20
18219;BMP180;9234;49.344;11.120;2023-07-31T05:45:07;97375.00;;;18.30
18219;BMP180;9234;49.344;11.120;2023-07-31T05:47:35;97377.00;;;18.30
18219;BMP180;9234;49.344;11.120;2023-07-31T05:50:04;97390.00;;;18.40
18219;BMP180;9234;49.344;11.120;2023-07-31T05:52:33;97383.00;;;18.50
18219;BMP180;9234;49.344;11.120;2023-07-31T05:55:02;97381.00;;;18.60
18219;BMP180;9234;49.344;11.120;2023-07-31T05:57:32;97384.00;;;18.60
18219;BMP180;9234;49.344;11.120;2023-07-31T06:00:01;97389.00;;;18.70
18219;BMP180;9234;49.344;11.120;2023-07-31T06:02:32;97384.00;;;18.80
18219;BMP180;9234;49.344;11.120;2023-07-31T06:05:05;97370.00;;;18.90
18219;BMP180;9234;49.344;11.120;2023-07-31T06:07:34;97373.00;;;19.00
18219;BMP180;9234;49.344;11.120;2023-07-31T06:10:03;97356.00;;;19.20
18219;BMP180;9234;49.344;11.120;2023-07-31T06:12:35;97365.00;;;19.30
18219;BMP180;9234;49.344;11.120;2023-07-31T06:15:04;97372.00;;;19.40
18219;BMP180;9234;49.344;11.120;2023-07-31T06:17:32;97364.00;;;19.50
18219;BMP180;9234;49.344;11.120;2023-07-31T06:20:01;97369.00;;;19.60
18219;BMP180;9234;49.344;11.120;2023-07-31T06:22:32;97366.00;;;19.70
18219;BMP180;9234;49.344;11.120;2023-07-31T06:25:00;97371.00;;;19.70
18219;BMP180;9234;49.344;11.120;2023-07-31T06:27:29;97379.00;;;19.80
18219;BMP180;9234;49.344;11.120;2023-07-31T06:29:58;97368.00;;;19.90
18219;BMP180;9234;49.344;11.120;2023-07-31T06:32:27;97374.00;;;20.00
18219;BMP180;9234;49.344;11.120;2023-07-31T06:34:55;97366.00;;;20.20
18219;BMP180;9234;49.344;11.120;2023-07-31T06:37:24;97364.00;;;20.30
18219;BMP180;9234;49.344;11.120;2023-07-31T06:39:52;97377.00;;;20.40
18219;BMP180;9234;49.344;11.120;2023-07-31T06:42:21;97366.00;;;20.50
18219;BMP180;9234;49.344;11.120;2023-07-31T06:44:49;97370.00;;;20.60
18219;BMP180;9234;49.344;11.120;2023-07-31T06:47:19;97382.00;;;20.70
18219;BMP180;9234;49.344;11.120;2023-07-31T06:49:48;97382.00;;;20.80
18219;BMP180;9234;49.344;11.120;2023-07-31T06:52:16;97383.00;;;20.80
18219;BMP180;9234;49.344;11.120;2023-07-31T06:55:00;97380.00;;;20.90
18219;BMP180;9234;49.344;11.120;2023-07-31T06:57:29;97382.00;;;21.10
18219;BMP180;9234;49.344;11.120;2023-07-31T06:59:57;97368.00;;;21.20
18219;BMP180;9234;49.344;11.120;2023-07-31T07:02:26;97373.00;;;21.30
18219;BMP180;9234;49.344;11.120;2023-07-31T07:04:55;97384.00;;;21.40
18219;BMP180;9234;49.344;11.120;2023-07-31T07:07:24;97377.00;;;21.50
18219;BMP180;9234;49.344;11.120;2023-07-31T07:09:52;97370.00;;;21.60
18219;BMP180;9234;49.344;11.120;2023-07-31T07:12:21;97377.00;;;21.70
18219;BMP180;9234;49.344;11.120;2023-07-31T07:14:49;97384.00;;;21.90
18219;BMP180;9234;49.344;11.120;2023-07-31T07:17:19;97382.00;;;22.00
18219;BMP180;9234;49.344;11.120;2023-07-31T07:19:49;97384.00;;;22.20
18219;BMP180;9234;49.344;11.120;2023-07-31T07:22:18;97387.00;;;22.40
18219;BMP180;9234;49.344;11.120;2023-07-31T07:24:46;97384.00;;;22.60
18219;BMP180;9234;49.344;11.120;2023-07-31T07:27:15;97380.00;;;22.70
18219;BMP180;9234;49.344;11.120;2023-07-31T07:29:43;97377.00;;;22.70
18219;BMP180;9234;49.344;11.120;2023-07-31T07:32:12;97383.00;;;22.70
18219;BMP180;9234;49.344;11.120;2023-07-31T07:34:40;97398.00;;;22.80
18219;BMP180;9234;49.344;11.120;2023-07-31T07:37:11;97389.00;;;22.80
18219;BMP180;9234;49.344;11.120;2023-07-31T07:39:39;97392.00;;;22.80
18219;BMP180;9234;49.344;11.120;2023-07-31T07:42:07;97384.00;;;22.70
18219;BMP180;9234;49.344;11.120;2023-07-31T07:44:36;97392.00;;;22.70
18219;BMP180;9234;49.344;11.120;2023-07-31T07:47:04;97392.00;;;22.60
18219;BMP180;9234;49.344;11.120;2023-07-31T07:49:35;97388.00;;;22.50
18219;BMP180;9234;49.344;11.120;2023-07-31T07:52:05;97376.00;;;22.50
18219;BMP180;9234;49.344;11.120;2023-07-31T07:54:35;97384.00;;;22.60
18219;BMP180;9234;49.344;11.120;2023-07-31T07:57:04;97386.00;;;22.70
18219;BMP180;9234;49.344;11.120;2023-07-31T07:59:32;97394.00;;;22.70
18219;BMP180;9234;49.344;11.120;2023-07-31T08:02:01;97389.00;;;22.90
18219;BMP180;9234;49.344;11.120;2023-07-31T08:04:30;97387.00;;;22.90
18219;BMP180;9234;49.344;11.120;2023-07-31T08:06:58;97384.00;;;23.00
18219;BMP180;9234;49.344;11.120;2023-07-31T08:09:26;97366.00;;;23.00
18219;BMP180;9234;49.344;11.120;2023-07-31T08:11:56;97380.00;;;23.00
18219;BMP180;9234;49.344;11.120;2023-07-31T08:14:29;97382.00;;;23.00
18219;BMP180;9234;49.344;11.120;2023-07-31T08:17:00;97383.00;;;23.10
18219;BMP180;9234;49.344;11.120;2023-07-31T08:19:29;97390.00;;;23.10
18219;BMP180;9234;49.344;11.120;2023-07-31T08:21:57;97390.00;;;23.20
18219;BMP180;9234;49.344;11.120;2023-07-31T08:24:25;97386.00;;;23.30
18219;BMP180;9234;49.344;11.120;2023-07-31T08:26:55;97385.00;;;23.50
18219;BMP180;9234;49.344;11.120;2023-07-31T08:29:24;97378.00;;;23.70
18219;BMP180;9234;49.344;11.120;2023-07-31T08:31:53;97381.00;;;23.70
18219;BMP180;9234;49.344;11.120;2023-07-31T08:34:21;97378.00;;;23.70
18219;BMP180;9234;49.344;11.120;2023-07-31T08:36:49;97368.00;;;23.70
18219;BMP180;9234;49.344;11.120;2023-07-31T08:39:18;97363.00;;;23.80
18219;BMP180;9234;49.344;11.120;2023-07-31T08:41:47;97354.00;;;23.90
18219;BMP180;9234;49.344;11.120;2023-07-31T08:44:18;97358.00;;;24.00
18219;BMP180;9234;49.344;11.120;2023-07-31T08:46:48;97352.00;;;24.10
18219;BMP180;9234;49.344;11.120;2023-07-31T08:49:20;97350.00;;;24.20
18219;BMP180;9234;49.344;11.120;2023-07-31T08:51:50;97352.00;;;24.40
18219;BMP180;9234;49.344;11.120;2023-07-31T08:54:20;97340.00;;;24.50
18219;BMP180;9234;49.344;11.120;2023-07-31T08:56:50;97340.00;;;24.50
18219;BMP180;9234;49.344;11.120;2023-07-31T08:59:22;97342.00;;;24.50
18219;BMP180;9234;49.344;11.120;2023-07-31T09:01:53;97344.00;;;24.50
18219;BMP180;9234;49.344;11.120;2023-07-31T09:04:23;97344.00;;;24.40
18219;BMP180;9234;49.344;11.120;2023-07-31T09:07:00;97332.00;;;24.30
18219;BMP180;9234;49.344;11.120;2023-07-31T09:09:30;97340.00;;;24.10
18219;BMP180;9234;49.344;11.120;2023-07-31T09:11:59;97330.00;;;24.00
18219;BMP180;9234;49.344;11.120;2023-07-31T09:14:29;97340.00;;;23.90
18219;BMP180;9234;49.344;11.120;2023-07-31T09:16:58;97341.00;;;24.10
18219;BMP180;9234;49.344;11.120;2023-07-31T09:19:29;97325.00;;;24.30
18219;BMP180;9234;49.344;11.120;2023-07-31T09:21:58;97328.00;;;24.60
18219;BMP180;9234;49.344;11.120;2023-07-31T09:24:28;97321.00;;;24.80
18219;BMP180;9234;49.344;11.120;2023-07-31T09:26:59;97326.00;;;25.00
18219;BMP180;9234;49.344;11.120;2023-07-31T09:29:29;97328.00;;;25.30
18219;BMP180;9234;49.344;11.120;2023-07-31T09:31:58;97333.00;;;25.50
18219;BMP180;9234;49.344;11.120;2023-07-31T09:34:36;97315.00;;;25.70
18219;BMP180;9234;49.344;11.120;2023-07-31T09:37:05;97316.00;;;25.90
18219;BMP180;9234;49.344;11.120;2023-07-31T09:39:46;97314.00;;;26.20
18219;BMP180;9234;49.344;11.120;2023-07-31T09:42:25;97308.00;;;26.50
18219;BMP180;9234;49.344;11.120;2023-07-31T09:45:07;97316.00;;;26.60
18219;BMP180;9234;49.344;11.120;2023-07-31T09:47:37;97315.00;;;26.80
18219;BMP180;9234;49.344;11.120;2023-07-31T09:50:08;97315.00;;;26.90
18219;BMP180;9234;49.344;11.120;2023-07-31T09:52:39;97308.00;;;26.90
18219;BMP180;9234;49.344;11.120;2023-07-31T09:55:08;97311.00;;;26.80
18219;BMP180;9234;49.344;11.120;2023-07-31T09:57:40;97297.00;;;26.50
18219;BMP180;9234;49.344;11.120;2023-07-31T10:00:13;97298.00;;;26.20
18219;BMP180;9234;49.344;11.120;2023-07-31T10:02:45;97287.00;;;25.80
18219;BMP180;9234;49.344;11.120;2023-07-31T10:05:15;97288.00;;;25.60
18219;BMP180;9234;49.344;11.120;2023-07-31T10:07:53;97276.00;;;25.50
18219;BMP180;9234;49.344;11.120;2023-07-31T10:10:22;97286.00;;;25.40
18219;BMP180;9234;49.344;11.120;2023-07-31T10:12:52;97275.00;;;25.40
18219;BMP180;9234;49.344;11.120;2023-07-31T10:15:23;97280.00;;;25.40
18219;BMP180;9234;49.344;11.120;2023-07-31T10:17:53;97283.00;;;25.40
18219;BMP180;9234;49.344;11.120;2023-07-31T10:20:24;97280.00;;;25.70
18219;BMP180;9234;49.344;11.120;2023-07-31T10:22:56;97267.00;;;25.90
18219;BMP180;9234;49.344;11.120;2023-07-31T10:25:27;97265.00;;;25.90
18219;BMP180;9234;49.344;11.120;2023-07-31T10:27:57;97261.00;;;26.00
18219;BMP180;9234;49.344;11.120;2023-07-31T10:30:30;97249.00;;;26.10
18219;BMP180;9234;49.344;11.120;2023-07-31T10:33:00;97254.00;;;26.30
18219;BMP180;9234;49.344;11.120;2023-07-31T10:35:29;97255.00;;;26.40
18219;BMP180;9234;49.344;11.120;2023-07-31T10:38:09;97255.00;;;26.50
18219;BMP180;9234;49.344;11.120;2023-07-31T10:40:39;97262.00;;;26.50
18219;BMP180;9234;49.344;11.120;2023-07-31T10:43:08;97241.00;;;26.40
18219;BMP180;9234;49.344;11.120;2023-07-31T10:45:42;97249.00;;;26.40
18219;BMP180;9234;49.344;11.120;2023-07-31T10:48:14;97238.00;;;26.40
18219;BMP180;9234;49.344;11.120;2023-07-31T10:50:48;97234.00;;;26.30
18219;BMP180;9234;49.344;11.120;2023-07-31T10:53:25;97238.00;;;26.10
18219;BMP180;9234;49.344;11.120;2023-07-31T10:55:59;97221.00;;;26.00
18219;BMP180;9234;49.344;11.120;2023-07-31T10:58:28;97213.00;;;26.20
18219;BMP180;9234;49.344;11.120;2023-07-31T11:01:02;97223.00;;;26.70
18219;BMP180;9234;49.344;11.120;2023-07-31T11:03:44;97225.00;;;27.20
18219;BMP180;9234;49.344;11.120;2023-07-31T11:06:14;97222.00;;;27.30
18219;BMP180;9234;49.344;11.120;2023-07-31T11:08:47;97215.00;;;27.20
18219;BMP180;9234;49.344;11.120;2023-07-31T11:11:18;97213.00;;;27.00
18219;BMP180;9234;49.344;11.120;2023-07-31T11:13:49;97201.00;;;26.60
18219;BMP180;9234;49.344;11.120;2023-07-31T11:16:22;97208.00;;;26.50
18219;BMP180;9234;49.344;11.120;2023-07-31T11:18:53;97210.00;;;26.30
18219;BMP180;9234;49.344;11.120;2023-07-31T11:21:24;97208.00;;;26.10
18219;BMP180;9234;49.344;11.120;2023-07-31T11:23:57;97210.00;;;26.00
18219;BMP180;9234;49.344;11.120;2023-07-31T11:26:26;97213.00;;;25.90
18219;BMP180;9234;49.344;11.120;2023-07-31T11:28:55;97189.00;;;26.00
18219;BMP180;9234;49.344;11.120;2023-07-31T11:31:24;97185.00;;;26.00
18219;BMP180;9234;49.344;11.120;2023-07-31T11:34:05;97187.00;;;26.00
18219;BMP180;9234;49.344;11.120;2023-07-31T11:36:33;97193.00;;;26.00
18219;BMP180;9234;49.344;11.120;2023-07-31T11:39:05;97202.00;;;26.00
18219;BMP180;9234;49.344;11.120;2023-07-31T11:41:33;97199.00;;;26.00
18219;BMP180;9234;49.344;11.120;2023-07-31T11:44:02;97191.00;;;25.90
18219;BMP180;9234;49.344;11.120;2023-07-31T11:46:45;97202.00;;;25.80
18219;BMP180;9234;49.344;11.120;2023-07-31T11:49:14;97198.00;;;25.80
18219;BMP180;9234;49.344;11.120;2023-07-31T11:51:43;97186.00;;;25.70
18219;BMP180;9234;49.344;11.120;2023-07-31T11:54:12;97193.00;;;25.70
18219;BMP180;9234;49.344;11.120;2023-07-31T11:56:44;97181.00;;;25.60
18219;BMP180;9234;49.344;11.120;2023-07-31T11:59:13;97183.00;;;25.50
18219;BMP180;9234;49.344;11.120;2023-07-31T12:01:41;97173.00;;;25.50
18219;BMP180;9234;49.344;11.120;2023-07-31T12:04:11;97192.00;;;25.50
18219;BMP180;9234;49.344;11.120;2023-07-31T12:06:40;97181.00;;;25.40
18219;BMP180;9234;49.344;11.120;2023-07-31T12:09:09;97185.00;;;25.40
18219;BMP180;9234;49.344;11.120;2023-07-31T12:11:43;97187.00;;;25.30
18219;BMP180;9234;49.344;11.120;2023-07-31T12:14:20;97182.00;;;25.20
18219;BMP180;9234;49.344;11.120;2023-07-31T12:16:54;97178.00;;;25.10
18219;BMP180;9234;49.344;11.120;2023-07-31T12:19:26;97170.00;;;25.00
18219;BMP180;9234;49.344;11.120;2023-07-31T12:21:58;97168.00;;;25.00
18219;BMP180;9234;49.344;11.120;2023-07-31T12:24:26;97172.00;;;25.00
18219;BMP180;9234;49.344;11.120;2023-07-31T12:26:54;97171.00;;;25.10
18219;BMP180;9234;49.344;11.120;2023-07-31T12:29:23;97159.00;;;25.20
18219;BMP180;9234;49.344;11.120;2023-07-31T12:32:01;97167.00;;;25.50
18219;BMP180;9234;49.344;11.120;2023-07-31T12:34:42;97149.00;;;25.80
18219;BMP180;9234;49.344;11.120;2023-07-31T12:37:10;97149.00;;;26.30
18219;BMP180;9234;49.344;11.120;2023-07-31T12:39:41;97152.00;;;26.70
18219;BMP180;9234;49.344;11.120;2023-07-31T12:42:10;97146.00;;;27.10
18219;BMP180;9234;49.344;11.120;2023-07-31T12:44:39;97141.00;;;27.50
18219;BMP180;9234;49.344;11.120;2023-07-31T12:47:07;97137.00;;;27.90
18219;BMP180;9234;49.344;11.120;2023-07-31T12:49:37;97134.00;;;28.00
18219;BMP180;9234;49.344;11.120;2023-07-31T12:52:07;97122.00;;;28.00
18219;BMP180;9234;49.344;11.120;2023-07-31T12:54:36;97118.00;;;28.00
18219;BMP180;9234;49.344;11.120;2023-07-31T12:57:05;97131.00;;;28.00
18219;BMP180;9234;49.344;11.120;2023-07-31T12:59:33;97121.00;;;28.10
18219;BMP180;9234;49.344;11.120;2023-07-31T13:02:01;97114.00;;;28.10
18219;BMP180;9234;49.344;11.120;2023-07-31T13:04:30;97115.00;;;28.00
18219;BMP180;9234;49.344;11.120;2023-07-31T13:06:59;97113.00;;;27.80
18219;BMP180;9234;49.344;11.120;2023-07-31T13:09:28;97110.00;;;27.60
18219;BMP180;9234;49.344;11.120;2023-07-31T13:11:56;97097.00;;;27.50
18219;BMP180;9234;49.344;11.120;2023-07-31T13:14:24;97074.00;;;27.40
18219;BMP180;9234;49.344;11.120;2023-07-31T13:16:53;97092.00;;;27.30
18219;BMP180;9234;49.344;11.120;2023-07-31T13:19:22;97099.00;;;27.30
18219;BMP180;9234;49.344;11.120;2023-07-31T13:21:50;97101.00;;;27.20
18219;BMP180;9234;49.344;11.120;2023-07-31T13:24:20;97088.00;;;27.20
18219;BMP180;9234;49.344;11.120;2023-07-31T13:26:49;97092.00;;;27.00
18219;BMP180;9234;49.344;11.120;2023-07-31T13:29:17;97081.00;;;27.20
18219;BMP180;9234;49.344;11.120;2023-07-31T13:31:46;97080.00;;;27.40
18219;BMP180;9234;49.344;11.120;2023-07-31T13:34:14;97079.00;;;27.70
18219;BMP180;9234;49.344;11.120;2023-07-31T13:36:42;97074.00;;;28.00
18219;BMP180;9234;49.344;11.120;2023-07-31T13:39:11;97068.00;;;28.30
18219;BMP180;9234;49.344;11.120;2023-07-31T13:41:40;97067.00;;;29.10
18219;BMP180;9234;49.344;11.120;2023-07-31T13:44:09;97068.00;;;29.50
18219;BMP180;9234;49.344;11.120;2023-07-31T13:46:37;97075.00;;;29.90
18219;BMP180;9234;49.344;11.120;2023-07-31T13:49:06;97072.00;;;29.70
18219;BMP180;9234;49.344;11.120;2023-07-31T13:51:35;97071.00;;;29.30
18219;BMP180;9234;49.344;11.120;2023-07-31T13:54:03;97069.00;;;28.90
18219;BMP180;9234;49.344;11.120;2023-07-31T13:56:31;97065.00;;;28.50
18219;BMP180;9234;49.344;11.120;2023-07-31T13:59:01;97069.00;;;28.30
18219;BMP180;9234;49.344;11.120;2023-07-31T14:01:29;97052.00;;;28.20
18219;BMP180;9234;49.344;11.120;2023-07-31T14:03:58;97048.00;;;28.40
18219;BMP180;9234;49.344;11.120;2023-07-31T14:06:29;97053.00;;;29.50
18219;BMP180;9234;49.344;11.120;2023-07-31T14:09:00;97048.00;;;30.70
18219;BMP180;9234;49.344;11.120;2023-07-31T14:11:31;97050.00;;;31.00
18219;BMP180;9234;49.344;11.120;2023-07-31T14:14:01;97041.00;;;30.90
18219;BMP180;9234;49.344;11.120;2023-07-31T14:16:30;97035.00;;;30.60
18219;BMP180;9234;49.344;11.120;2023-07-31T14:18:59;97036.00;;;30.30
18219;BMP180;9234;49.344;11.120;2023-07-31T14:21:27;97043.00;;;30.20
18219;BMP180;9234;49.344;11.120;2023-07-31T14:23:56;97039.00;;;30.00
18219;BMP180;9234;49.344;11.120;2023-07-31T14:26:24;97037.00;;;29.80